Time;durP1;ratioP1;P1;durP2;ratioP2;P2;SDS_P1;SDS_P2;PMS_P1;PMS_P2;Temp;Humidity;BMP_temperature;BMP_pressure;BME280_temperature;BME280_humidity;BME280_pressure;Samples;Min_cycle;Max_cycle;Signal;HPM_P1;HPM_P2
2022/01/03 00:03:01;;;;;;;11.60;2.12;;;9.90;99.90;;;;;;7257462;32;20117;-83
2022/01/03 00:07:03;;;;;;;11.55;1.52;;;9.90;99.90;;;;;;7257482;32;20105;-82
2022/01/03 00:11:06;;;;;;;16.20;2.80;;;9.90;99.90;;;;;;7238961;32;20108;-83
2022/01/03 00:15:13;;;;;;;12.95;1.83;;;9.90;99.90;;;;;;7235086;32;20132;-82
2022/01/03 00:19:14;;;;;;;17.23;1.67;;;10.00;99.90;;;;;;7255459;32;20202;-83
2022/01/03 00:23:17;;;;;;;17.67;1.77;;;10.00;99.90;;;;;;7259424;32;20212;-82
2022/01/03 00:27:22;;;;;;;13.52;1.77;;;9.90;99.90;;;;;;7255466;32;20446;-82
2022/01/03 00:31:39;;;;;;;14.27;2.65;;;9.90;99.90;;;;;;7235410;32;20112;-82
2022/01/03 00:35:42;;;;;;;11.35;1.65;;;10.00;99.90;;;;;;7238309;32;20167;-82
2022/01/03 00:39:45;;;;;;;16.48;2.05;;;10.00;99.90;;;;;;7268357;32;20187;-81
2022/01/03 00:43:51;;;;;;;19.77;2.15;;;9.90;99.90;;;;;;7270003;32;20083;-80
2022/01/03 00:47:54;;;;;;;13.05;2.08;;;10.00;99.90;;;;;;7275751;32;20069;-81
2022/01/03 00:51:56;;;;;;;19.33;2.15;;;10.00;99.90;;;;;;7272981;32;20082;-81
2022/01/03 00:56:15;;;;;;;12.52;2.08;;;10.00;99.90;;;;;;7280739;32;20135;-81
2022/01/03 01:00:17;;;;;;;10.43;1.80;;;10.00;99.90;;;;;;7270651;32;20062;-81
2022/01/03 01:04:20;;;;;;;11.88;1.92;;;10.00;99.90;;;;;;7263098;32;20073;-81
2022/01/03 01:08:26;;;;;;;16.20;2.85;;;10.00;99.90;;;;;;7280840;32;20069;-81
2022/01/03 01:12:30;;;;;;;18.67;1.95;;;9.90;99.90;;;;;;7257796;32;20686;-82
2022/01/03 01:16:32;;;;;;;15.10;2.15;;;9.90;99.90;;;;;;7243146;32;20105;-82
2022/01/03 01:20:35;;;;;;;15.85;1.65;;;9.80;99.90;;;;;;7251188;32;20252;-81
2022/01/03 01:24:47;;;;;;;20.33;2.78;;;9.80;99.90;;;;;;7243643;32;20097;-81
2022/01/03 01:28:49;;;;;;;15.07;2.00;;;9.80;99.90;;;;;;7236678;32;22156;-81
2022/01/03 01:33:14;;;;;;;12.50;2.22;;;9.80;99.90;;;;;;7240214;32;20211;-81
2022/01/03 01:37:19;;;;;;;17.23;2.28;;;9.80;99.90;;;;;;7252690;32;20127;-81
2022/01/03 01:41:20;;;;;;;14.32;2.55;;;9.80;99.90;;;;;;7239003;32;20123;-81
2022/01/03 01:45:26;;;;;;;15.90;2.65;;;9.90;99.90;;;;;;7255573;32;20238;-81
2022/01/03 01:49:28;;;;;;;16.77;2.35;;;10.00;99.90;;;;;;7247713;32;20170;-81
2022/01/03 01:53:30;;;;;;;13.93;2.28;;;10.00;99.90;;;;;;7245055;32;20199;-81
2022/01/03 01:57:54;;;;;;;15.50;2.70;;;10.00;99.90;;;;;;7249871;32;20117;-81
2022/01/03 02:02:07;;;;;;;12.52;1.92;;;10.00;99.90;;;;;;7252316;32;20175;-81
2022/01/03 02:06:21;;;;;;;14.05;2.08;;;10.00;99.90;;;;;;7245326;32;20150;-81
2022/01/03 02:10:27;;;;;;;13.18;1.90;;;10.00;99.90;;;;;;7244204;32;20195;-81
2022/01/03 02:14:36;;;;;;;17.05;2.15;;;9.90;99.90;;;;;;7240003;32;20117;-81
2022/01/03 02:18:38;;;;;;;9.60;1.52;;;9.90;99.90;;;;;;7244740;32;20234;-81
2022/01/03 02:22:41;;;;;;;21.12;2.62;;;9.90;99.90;;;;;;7250933;32;20214;-81
2022/01/03 02:26:43;;;;;;;17.27;2.40;;;9.90;99.90;;;;;;7255951;32;20184;-81
2022/01/03 02:30:44;;;;;;;13.68;1.90;;;9.80;99.90;;;;;;7249836;32;20367;-81
2022/01/03 02:34:47;;;;;;;12.35;2.12;;;9.70;99.90;;;;;;7259105;32;20511;-81
2022/01/03 02:38:49;;;;;;;12.20;2.45;;;9.60;99.90;;;;;;7249418;32;20166;-81
2022/01/03 02:42:51;;;;;;;12.80;1.80;;;9.60;99.90;;;;;;7260105;32;20105;-81
2022/01/03 02:46:53;;;;;;;16.55;2.53;;;9.50;99.90;;;;;;7233294;32;20529;-81
2022/01/03 02:50:55;;;;;;;14.98;2.12;;;9.50;99.90;;;;;;7250800;32;20113;-81
2022/01/03 02:55:12;;;;;;;13.02;1.87;;;9.60;99.90;;;;;;7259675;32;20183;-81
2022/01/03 02:59:23;;;;;;;13.55;2.33;;;9.70;99.90;;;;;;7253994;32;20101;-81
2022/01/03 03:03:25;;;;;;;15.93;1.77;;;9.70;99.90;;;;;;7249507;32;20557;-80
2022/01/03 03:07:29;;;;;;;14.48;1.60;;;9.80;99.90;;;;;;7243781;32;20124;-81
2022/01/03 03:11:33;;;;;;;13.15;1.58;;;9.70;99.90;;;;;;7257625;32;20131;-81
2022/01/03 03:15:35;;;;;;;12.20;2.85;;;9.80;99.90;;;;;;7241468;32;20273;-80
2022/01/03 03:20:28;;;;;;;15.43;2.05;;;9.80;99.90;;;;;;7259343;32;20377;-81
2022/01/03 03:24:30;;;;;;;13.13;2.00;;;9.70;99.90;;;;;;7240970;32;20199;-81
2022/01/03 03:28:32;;;;;;;15.55;1.60;;;9.50;99.90;;;;;;7238943;32;20146;-80
2022/01/03 03:32:34;;;;;;;9.60;1.62;;;9.50;99.90;;;;;;7252959;32;20199;-80
2022/01/03 03:36:36;;;;;;;17.90;2.20;;;9.50;99.90;;;;;;7244035;32;20097;-79
2022/01/03 03:40:38;;;;;;;11.50;1.80;;;9.50;99.90;;;;;;7258238;32;20122;-80
2022/01/03 03:44:40;;;;;;;15.95;2.25;;;9.50;99.90;;;;;;7239700;32;20261;-80
2022/01/03 03:48:42;;;;;;;12.45;1.92;;;9.50;99.90;;;;;;7254981;32;20183;-80
2022/01/03 03:52:44;;;;;;;13.75;1.95;;;9.40;99.90;;;;;;7255084;32;20195;-80
2022/01/03 03:56:46;;;;;;;12.18;1.92;;;9.50;99.90;;;;;;7238550;32;20198;-80
2022/01/03 04:00:47;;;;;;;19.80;2.80;;;9.50;99.90;;;;;;7259691;32;20147;-80
2022/01/03 04:05:09;;;;;;;11.10;1.70;;;9.50;99.90;;;;;;7259276;32;20085;-80
2022/01/03 04:09:11;;;;;;;14.52;1.90;;;9.50;99.90;;;;;;7256925;32;20719;-80
2022/01/03 04:13:13;;;;;;;13.85;1.90;;;9.40;99.90;;;;;;7237985;32;20111;-80
2022/01/03 04:17:15;;;;;;;19.05;2.42;;;9.40;99.90;;;;;;7244024;32;20287;-80
2022/01/03 04:21:17;;;;;;;20.83;2.72;;;9.30;99.90;;;;;;7236947;32;20104;-80
2022/01/03 04:25:19;;;;;;;15.35;1.98;;;9.20;99.90;;;;;;7236635;32;20163;-79
2022/01/03 04:29:21;;;;;;;21.92;2.85;;;9.20;99.90;;;;;;7248521;32;20206;-80
2022/01/03 04:33:22;;;;;;;12.13;1.67;;;9.20;99.90;;;;;;7251171;32;20177;-80
2022/01/03 04:37:24;;;;;;;10.43;1.70;;;9.10;99.90;;;;;;7240672;32;20113;-79
2022/01/03 04:41:26;;;;;;;10.70;2.12;;;9.10;99.90;;;;;;7243876;32;20298;-79
2022/01/03 04:45:28;;;;;;;15.32;2.03;;;9.10;99.90;;;;;;7250775;32;20100;-79
2022/01/03 04:49:30;;;;;;;14.98;1.80;;;9.20;99.90;;;;;;7250179;32;20339;-80
2022/01/03 04:53:36;;;;;;;15.80;2.30;;;9.00;99.90;;;;;;7251606;32;20105;-79
2022/01/03 04:57:37;;;;;;;13.43;2.05;;;9.00;99.90;;;;;;7229746;32;20196;-79
2022/01/03 05:01:39;;;;;;;14.70;1.83;;;9.00;99.90;;;;;;7239072;32;20513;-79
2022/01/03 05:05:41;;;;;;;14.27;1.85;;;9.00;99.90;;;;;;7239945;32;20113;-80
2022/01/03 05:09:43;;;;;;;12.13;1.62;;;9.10;99.90;;;;;;7241279;32;20153;-79
2022/01/03 05:13:45;;;;;;;12.75;2.05;;;9.00;99.90;;;;;;7242281;32;20533;-80
2022/01/03 05:17:47;;;;;;;12.85;1.90;;;9.10;99.90;;;;;;7229787;32;20109;-79
2022/01/03 05:21:48;;;;;;;15.57;1.73;;;9.10;99.90;;;;;;7239338;32;20219;-78
2022/01/03 05:25:53;;;;;;;12.90;1.85;;;9.20;99.90;;;;;;7239383;32;20101;-80
2022/01/03 05:29:55;;;;;;;13.25;2.00;;;9.30;99.90;;;;;;7234820;32;20155;-79
2022/01/03 05:33:57;;;;;;;11.63;1.77;;;9.30;99.90;;;;;;7230354;32;20815;-80
2022/01/03 05:37:59;;;;;;;12.07;2.00;;;9.30;99.90;;;;;;7241516;32;20223;-79
2022/01/03 05:42:00;;;;;;;10.45;2.12;;;9.30;99.90;;;;;;7254177;32;20301;-77
2022/01/03 05:46:02;;;;;;;9.35;2.05;;;9.20;99.90;;;;;;7244132;32;20123;-76
2022/01/03 05:50:04;;;;;;;13.32;1.77;;;9.30;99.90;;;;;;7251482;32;20101;-78
2022/01/03 05:54:06;;;;;;;12.32;2.22;;;9.30;99.90;;;;;;7246734;32;20108;-79
2022/01/03 05:58:08;;;;;;;12.18;1.80;;;9.20;99.90;;;;;;7247380;32;20101;-79
2022/01/03 06:02:11;;;;;;;14.15;3.08;;;9.30;99.90;;;;;;7253693;32;20196;-79
2022/01/03 06:10:17;;;;;;;16.73;2.15;;;9.40;99.90;;;;;;7247175;32;20219;-78
2022/01/03 06:14:20;;;;;;;12.15;1.87;;;9.40;99.90;;;;;;7257182;32;20188;-79
2022/01/03 06:18:23;;;;;;;15.95;2.42;;;9.50;99.90;;;;;;7258651;32;20125;-78
2022/01/03 06:22:24;;;;;;;14.27;2.30;;;9.50;99.90;;;;;;7236198;32;20168;-79
2022/01/03 06:26:26;;;;;;;13.05;2.17;;;9.50;99.90;;;;;;7249329;32;20101;-79
2022/01/03 06:30:28;;;;;;;10.40;1.90;;;9.60;99.90;;;;;;7254295;32;20219;-79
2022/01/03 06:34:30;;;;;;;17.08;2.35;;;9.60;99.90;;;;;;7255675;32;20101;-79
2022/01/03 06:38:32;;;;;;;18.70;2.47;;;9.60;99.90;;;;;;7241977;32;20119;-79
2022/01/03 06:42:34;;;;;;;16.45;2.40;;;9.70;99.90;;;;;;7243065;32;20125;-79
2022/01/03 06:46:36;;;;;;;11.85;1.55;;;9.60;99.90;;;;;;7245507;32;20222;-78
2022/01/03 06:50:38;;;;;;;18.33;2.37;;;9.70;99.90;;;;;;7243580;32;20187;-79
2022/01/03 06:54:40;;;;;;;10.75;1.55;;;9.70;99.90;;;;;;7245100;32;20166;-79
2022/01/03 06:58:42;;;;;;;19.45;1.98;;;9.70;99.90;;;;;;7238301;32;20501;-79
2022/01/03 07:02:44;;;;;;;17.70;2.00;;;9.70;99.90;;;;;;7247382;32;20178;-79
2022/01/03 07:06:46;;;;;;;14.23;1.87;;;9.70;99.90;;;;;;7250005;32;20101;-79
2022/01/03 07:10:49;;;;;;;13.82;1.95;;;9.80;99.90;;;;;;7241865;32;20132;-79
2022/01/03 07:18:56;;;;;;;15.48;1.75;;;9.70;99.90;;;;;;7244331;32;20170;-79
2022/01/03 07:22:58;;;;;;;13.82;2.08;;;9.70;99.90;;;;;;7246889;32;20122;-80
2022/01/03 07:27:05;;;;;;;16.75;2.10;;;9.70;99.90;;;;;;7230867;32;20115;-80
2022/01/03 07:31:06;;;;;;;16.80;2.00;;;9.50;99.90;;;;;;7240072;32;20105;-79
2022/01/03 07:35:13;;;;;;;18.80;1.98;;;9.50;99.90;;;;;;7245839;32;20502;-79
2022/01/03 07:39:15;;;;;;;13.80;2.20;;;9.50;99.90;;;;;;7241376;32;20132;-78
2022/01/03 07:43:19;;;;;;;6.40;1.48;;;9.50;99.90;;;;;;7232973;32;20101;-78
2022/01/03 07:47:21;;;;;;;13.52;2.12;;;9.60;99.90;;;;;;7247095;32;20420;-78
2022/01/03 07:51:23;;;;;;;17.10;2.58;;;9.60;99.90;;;;;;7252493;32;20200;-80
2022/01/03 07:55:26;;;;;;;9.93;2.37;;;9.60;99.90;;;;;;7246575;32;20606;-80
2022/01/03 07:59:28;;;;;;;16.02;2.03;;;9.70;99.90;;;;;;7236053;32;20496;-78
2022/01/03 08:03:30;;;;;;;13.88;2.72;;;9.70;99.90;;;;;;7254929;32;20626;-78
2022/01/03 08:07:42;;;;;;;14.00;2.40;;;9.70;99.90;;;;;;7249596;32;20131;-79
2022/01/03 08:11:44;;;;;;;15.95;2.42;;;9.70;99.90;;;;;;7265605;32;20689;-78
2022/01/03 08:15:46;;;;;;;17.90;2.67;;;9.80;99.90;;;;;;7269203;32;20131;-78
2022/01/03 08:19:48;;;;;;;16.35;2.17;;;9.80;99.90;;;;;;7261871;32;20105;-78
2022/01/03 08:23:51;;;;;;;15.25;2.30;;;9.80;99.90;;;;;;7250268;32;20530;-78
2022/01/03 08:27:53;;;;;;;14.73;2.10;;;9.80;99.90;;;;;;7266615;32;20089;-78
2022/01/03 08:31:55;;;;;;;16.62;2.05;;;9.80;99.90;;;;;;7257212;32;20127;-78
2022/01/03 08:35:57;;;;;;;13.88;1.90;;;9.90;99.90;;;;;;7264516;32;20093;-75
2022/01/03 08:40:04;;;;;;;9.02;1.73;;;9.90;99.90;;;;;;7281135;32;20088;-74
2022/01/03 08:44:07;;;;;;;12.65;2.10;;;9.90;99.90;;;;;;7286247;32;20069;-74
2022/01/03 08:48:09;;;;;;;17.77;2.65;;;9.90;99.90;;;;;;7269836;32;20054;-74
2022/01/03 08:52:10;;;;;;;15.63;2.35;;;10.00;99.90;;;;;;7287210;32;20057;-75
2022/01/03 08:56:13;;;;;;;14.73;2.87;;;10.00;99.90;;;;;;7286900;32;20062;-74
2022/01/03 09:00:15;;;;;;;14.27;2.67;;;10.00;99.90;;;;;;7253998;32;20118;-76
2022/01/03 09:04:17;;;;;;;18.02;2.62;;;10.00;99.90;;;;;;7246398;32;20196;-77
2022/01/03 09:08:21;;;;;;;10.75;2.05;;;10.00;99.90;;;;;;7242315;32;20108;-76
2022/01/03 09:12:23;;;;;;;12.93;1.95;;;10.10;99.90;;;;;;7256750;32;20182;-76
2022/01/03 09:16:25;;;;;;;14.43;2.30;;;10.10;99.90;;;;;;7239965;32;20170;-78
2022/01/03 09:20:27;;;;;;;12.15;2.47;;;10.10;99.90;;;;;;7259748;32;20130;-78
2022/01/03 09:24:42;;;;;;;10.98;2.42;;;10.10;99.90;;;;;;7248258;32;20113;-77
2022/01/03 09:33:09;;;;;;;15.25;2.15;;;10.20;99.90;;;;;;7256522;32;20102;-78
2022/01/03 09:37:12;;;;;;;12.10;2.33;;;10.20;99.90;;;;;;7254718;32;20204;-78
2022/01/03 09:41:18;;;;;;;12.63;2.05;;;10.20;99.90;;;;;;7256999;32;20211;-78
2022/01/03 09:45:37;;;;;;;10.07;2.03;;;10.20;99.90;;;;;;7259666;32;20128;-78
2022/01/03 09:49:43;;;;;;;17.60;2.95;;;10.30;99.90;;;;;;7249848;32;20122;-78
2022/01/03 09:53:47;;;;;;;13.93;1.95;;;10.30;99.90;;;;;;7250485;32;20112;-77
2022/01/03 09:57:49;;;;;;;15.10;2.37;;;10.40;99.90;;;;;;7252383;32;20703;-77
2022/01/03 10:01:53;;;;;;;9.77;1.70;;;10.50;99.90;;;;;;7249142;32;20584;-78
2022/01/03 10:05:55;;;;;;;12.93;2.40;;;10.60;99.90;;;;;;7255396;32;20207;-78
2022/01/03 10:09:58;;;;;;;15.20;2.35;;;10.60;99.90;;;;;;7248817;32;20104;-77
2022/01/03 10:14:00;;;;;;;14.98;2.72;;;10.70;99.90;;;;;;7250439;32;20127;-79
2022/01/03 10:18:02;;;;;;;13.35;1.77;;;10.60;99.90;;;;;;7255948;32;20316;-78
2022/01/03 10:22:07;;;;;;;12.48;2.22;;;10.60;99.90;;;;;;7240802;32;20119;-78
2022/01/03 10:26:17;;;;;;;8.02;1.62;;;10.70;99.90;;;;;;7231680;32;20135;-79
2022/01/03 10:31:26;;;;;;;13.88;1.58;;;10.70;99.90;;;;;;7236945;32;20245;-78
2022/01/03 10:35:36;;;;;;;14.20;2.65;;;10.80;99.90;;;;;;7235513;32;20093;-78
2022/01/03 10:39:38;;;;;;;6.50;1.37;;;10.80;99.90;;;;;;7234659;32;20220;-79
2022/01/03 10:44:01;;;;;;;12.20;2.22;;;10.80;99.90;;;;;;7252323;32;20179;-76
2022/01/03 10:48:03;;;;;;;17.95;2.25;;;10.80;99.90;;;;;;7248471;32;20112;-74
2022/01/03 10:52:16;;;;;;;18.62;2.55;;;10.80;99.90;;;;;;7232901;32;20124;-77
2022/01/03 10:56:35;;;;;;;21.30;2.22;;;10.90;99.90;;;;;;7239395;32;20105;-77
2022/01/03 11:00:40;;;;;;;15.35;2.28;;;11.10;99.90;;;;;;7254617;32;20525;-77
2022/01/03 11:04:52;;;;;;;14.77;2.58;;;11.30;99.90;;;;;;7254994;32;20286;-76
2022/01/03 11:13:22;;;;;;;12.30;1.77;;;11.10;99.90;;;;;;7244990;32;20105;-76
2022/01/03 11:17:29;;;;;;;20.08;2.42;;;11.10;99.90;;;;;;7242460;32;20129;-78
2022/01/03 11:21:33;;;;;;;11.85;2.10;;;11.20;99.90;;;;;;7249736;32;20378;-79
2022/01/03 11:25:36;;;;;;;10.93;1.70;;;11.30;99.90;;;;;;7238546;32;20192;-77
2022/01/03 11:29:38;;;;;;;10.85;1.92;;;11.30;99.90;;;;;;7257147;32;20184;-78
2022/01/03 11:33:41;;;;;;;16.10;2.62;;;11.40;99.90;;;;;;7235544;32;20307;-78
2022/01/03 11:38:06;;;;;;;15.98;2.15;;;11.50;99.90;;;;;;7239494;32;20648;-77
2022/01/03 11:42:10;;;;;;;10.70;1.77;;;11.60;99.90;;;;;;7237041;32;20175;-77
2022/01/03 11:46:12;;;;;;;12.85;2.05;;;11.70;99.90;;;;;;7234118;32;20588;-77
2022/01/03 11:50:16;;;;;;;11.65;1.62;;;11.50;99.90;;;;;;7236477;32;20178;-78
2022/01/03 11:54:19;;;;;;;10.13;2.58;;;11.40;99.90;;;;;;7243880;32;20158;-77
2022/01/03 11:58:55;;;;;;;11.27;1.37;;;11.40;99.90;;;;;;7241023;32;20132;-77
2022/01/03 12:07:31;;;;;;;8.63;1.45;;;11.30;99.90;;;;;;7237891;32;20101;-78
2022/01/03 12:11:40;;;;;;;14.55;2.42;;;11.30;99.90;;;;;;7236291;32;20101;-77
2022/01/03 12:15:42;;;;;;;14.20;1.98;;;11.20;99.90;;;;;;7253127;32;20100;-79
2022/01/03 12:19:46;;;;;;;9.45;1.85;;;11.10;99.90;;;;;;7264834;32;20113;-78
2022/01/03 12:23:48;;;;;;;11.82;1.77;;;11.00;99.90;;;;;;7268940;32;20096;-78
2022/01/03 12:27:58;;;;;;;13.50;2.20;;;11.00;99.90;;;;;;7278841;32;20101;-78
2022/01/03 12:32:08;;;;;;;10.43;1.80;;;10.90;99.90;;;;;;7287080;32;20097;-78
2022/01/03 12:36:16;;;;;;;11.32;2.00;;;10.90;99.90;;;;;;7262803;32;20073;-79
2022/01/03 12:40:31;;;;;;;17.85;2.15;;;10.80;99.90;;;;;;7275090;32;20186;-80
2022/01/03 12:44:49;;;;;;;15.98;2.75;;;10.40;99.90;;;;;;7261948;32;20151;-82
2022/01/03 12:48:51;;;;;;;20.42;2.50;;;10.20;99.90;;;;;;7258000;32;20133;-81
2022/01/03 12:52:54;;;;;;;20.55;3.47;;;10.20;99.90;;;;;;7257454;32;20112;-79
2022/01/03 12:57:14;;;;;;;21.40;2.67;;;10.10;99.90;;;;;;7259569;32;20151;-79
2022/01/03 13:01:27;;;;;;;18.60;2.85;;;10.10;99.90;;;;;;7250509;32;20126;-79
2022/01/03 13:05:30;;;;;;;15.02;3.03;;;10.00;99.90;;;;;;7253104;32;20097;-79
2022/01/03 13:09:38;;;;;;;10.40;1.35;;;10.00;99.90;;;;;;7241383;32;20109;-77
2022/01/03 13:13:41;;;;;;;10.18;1.65;;;9.90;99.90;;;;;;7246504;32;20155;-78
2022/01/03 13:17:43;;;;;;;9.80;1.48;;;9.80;99.90;;;;;;7247978;32;20129;-79
2022/01/03 13:22:02;;;;;;;7.65;1.50;;;9.80;99.90;;;;;;7247668;32;20574;-78
2022/01/03 13:26:04;;;;;;;5.53;1.20;;;9.80;99.90;;;;;;7238519;32;20184;-80
2022/01/03 13:30:08;;;;;;;4.82;1.05;;;9.70;99.90;;;;;;7247473;32;20369;-79
2022/01/03 13:34:10;;;;;;;5.53;1.30;;;9.60;99.90;;;;;;7243773;32;20241;-78
2022/01/03 13:38:16;;;;;;;8.68;1.60;;;9.60;99.90;;;;;;7245746;32;20192;-78
2022/01/03 13:42:28;;;;;;;5.90;1.30;;;9.70;99.90;;;;;;7237159;32;20431;-78
2022/01/03 13:51:20;;;;;;;6.12;1.73;;;10.00;99.90;;;;;;7257377;32;20109;-79
2022/01/03 13:55:28;;;;;;;7.10;1.75;;;10.10;99.90;;;;;;7246091;32;20501;-79
2022/01/03 13:59:35;;;;;;;8.38;1.65;;;10.20;99.90;;;;;;7248001;32;20116;-78
2022/01/03 14:03:39;;;;;;;9.80;1.45;;;10.20;99.90;;;;;;7235937;32;20202;-79
2022/01/03 14:07:51;;;;;;;8.45;1.60;;;10.30;99.90;;;;;;7247374;32;20144;-79
2022/01/03 14:12:07;;;;;;;11.30;1.65;;;10.20;99.90;;;;;;7246950;32;20239;-79
2022/01/03 14:16:13;;;;;;;8.68;1.77;;;10.20;99.90;;;;;;7240780;32;20465;-81
2022/01/03 14:20:20;;;;;;;11.43;1.70;;;10.20;99.90;;;;;;7241235;32;20184;-79
2022/01/03 14:24:25;;;;;;;9.60;1.87;;;10.20;99.90;;;;;;7251774;32;20269;-79
2022/01/03 14:28:28;;;;;;;10.70;2.17;;;10.30;99.90;;;;;;7254054;32;20187;-80
2022/01/03 14:32:38;;;;;;;12.63;2.60;;;10.20;99.90;;;;;;7240182;32;20113;-80
2022/01/03 14:36:41;;;;;;;10.90;1.60;;;10.20;99.90;;;;;;7242502;32;20624;-79
2022/01/03 14:40:47;;;;;;;9.80;1.83;;;10.20;99.90;;;;;;7252311;32;20693;-80
2022/01/03 14:44:49;;;;;;;5.45;1.10;;;9.90;99.90;;;;;;7260935;32;20602;-80
2022/01/03 14:48:53;;;;;;;8.13;1.33;;;9.60;99.90;;;;;;7257313;32;20210;-78
2022/01/03 14:53:00;;;;;;;11.40;1.95;;;9.40;99.90;;;;;;7245409;32;20173;-78
2022/01/03 14:57:16;;;;;;;;;;;9.30;99.90;;;;;;7233569;32;20694;-79
2022/01/03 15:01:17;;;;;;;11.30;1.62;;;9.20;99.90;;;;;;7240498;32;20012;-80
2022/01/03 15:05:19;;;;;;;14.90;2.35;;;9.20;99.90;;;;;;7247323;32;20101;-79
2022/01/03 15:09:22;;;;;;;9.50;1.75;;;9.10;99.90;;;;;;7228953;32;20130;-79
2022/01/03 15:13:44;;;;;;;9.93;1.85;;;9.00;99.90;;;;;;7257939;32;20200;-79
2022/01/03 15:17:46;;;;;;;10.98;2.53;;;9.00;99.90;;;;;;7265903;32;20054;-81
2022/01/03 15:21:49;;;;;;;9.60;1.70;;;9.00;99.90;;;;;;7281502;32;20084;-79
2022/01/03 15:25:51;;;;;;;12.80;2.80;;;8.90;99.90;;;;;;7268197;32;20125;-81
2022/01/03 15:29:53;;;;;;;10.15;1.98;;;8.90;99.90;;;;;;7272418;32;20148;-80
2022/01/03 15:33:55;;;;;;;10.77;2.10;;;8.80;99.90;;;;;;7296791;32;20194;-79
2022/01/03 15:37:57;;;;;;;8.25;1.98;;;8.80;99.90;;;;;;7287404;32;20111;-80
2022/01/03 15:41:59;;;;;;;10.60;2.12;;;8.70;99.90;;;;;;7272086;32;20084;-80
2022/01/03 15:46:02;;;;;;;12.70;1.90;;;8.70;99.90;;;;;;7238722;32;20617;-80
2022/01/03 15:50:05;;;;;;;8.38;2.00;;;8.60;99.90;;;;;;7265127;32;20119;-82
2022/01/03 15:54:08;;;;;;;10.32;2.03;;;8.60;99.90;;;;;;7242448;32;20117;-81
2022/01/03 15:58:10;;;;;;;11.55;1.58;;;8.50;99.90;;;;;;7252537;32;20773;-80
2022/01/03 16:02:12;;;;;;;8.30;1.70;;;8.50;99.90;;;;;;7229129;32;20112;-80
2022/01/03 16:06:13;;;;;;;8.95;2.33;;;8.50;99.90;;;;;;7241461;32;20242;-82
2022/01/03 16:10:15;;;;;;;8.25;1.85;;;8.50;99.90;;;;;;7249434;32;20105;-81
2022/01/03 16:14:18;;;;;;;7.10;1.33;;;8.60;99.90;;;;;;7254119;32;20131;-80
2022/01/03 16:18:20;;;;;;;6.40;1.10;;;8.50;99.90;;;;;;7239541;32;20121;-81
2022/01/03 16:22:23;;;;;;;5.22;1.67;;;8.50;99.90;;;;;;7244836;32;20710;-79
2022/01/03 16:26:26;;;;;;;7.50;1.48;;;8.40;99.90;;;;;;7231409;32;20218;-80
2022/01/03 16:30:27;;;;;;;5.93;0.80;;;8.40;99.90;;;;;;7241460;32;20108;-81
2022/01/03 16:34:30;;;;;;;3.42;0.70;;;8.40;99.90;;;;;;7248815;32;20221;-79
2022/01/03 16:38:32;;;;;;;4.43;1.00;;;8.40;99.90;;;;;;7231918;32;20105;-79
2022/01/03 16:42:34;;;;;;;2.05;0.70;;;8.40;99.90;;;;;;7232530;32;20180;-80
2022/01/03 16:46:36;;;;;;;2.47;0.88;;;8.40;99.90;;;;;;7243809;32;20273;-80
2022/01/03 16:50:39;;;;;;;5.22;1.10;;;8.40;99.90;;;;;;7240360;32;20781;-80
2022/01/03 16:54:41;;;;;;;3.58;0.80;;;8.40;99.90;;;;;;7252233;32;20155;-80
2022/01/03 16:58:43;;;;;;;3.12;0.95;;;8.40;99.90;;;;;;7239494;32;20219;-80
2022/01/03 17:02:45;;;;;;;4.20;1.17;;;8.40;99.90;;;;;;7248483;32;20109;-82
2022/01/03 17:06:47;;;;;;;3.08;1.10;;;8.30;99.90;;;;;;7257166;32;20200;-81
2022/01/03 17:11:03;;;;;;;3.35;1.10;;;8.20;99.90;;;;;;7255205;32;20274;-80
2022/01/03 17:15:05;;;;;;;3.40;0.95;;;8.20;99.90;;;;;;7241811;32;20192;-80
2022/01/03 17:19:07;;;;;;;4.97;1.17;;;8.20;99.90;;;;;;7247568;32;20108;-80
2022/01/03 17:23:09;;;;;;;4.00;1.20;;;8.20;99.90;;;;;;7246039;32;20526;-81
2022/01/03 17:27:13;;;;;;;3.33;0.90;;;8.20;99.90;;;;;;7254111;32;20128;-82
2022/01/03 17:31:14;;;;;;;3.05;1.40;;;8.20;99.90;;;;;;7256317;32;20097;-81
2022/01/03 17:35:16;;;;;;;3.58;1.42;;;8.10;99.90;;;;;;7250524;32;20128;-83
2022/01/03 17:39:18;;;;;;;4.75;1.20;;;8.10;99.90;;;;;;7251528;32;20172;-83
2022/01/03 17:43:20;;;;;;;3.42;1.05;;;8.00;99.90;;;;;;7246262;32;20097;-83
2022/01/03 17:47:21;;;;;;;4.07;1.27;;;8.10;99.90;;;;;;7251556;32;20120;-83
2022/01/03 17:51:25;;;;;;;3.78;1.27;;;8.20;99.90;;;;;;7251532;32;20257;-84
2022/01/03 17:55:27;;;;;;;2.97;1.48;;;8.20;99.90;;;;;;7257069;32;20092;-84
2022/01/03 17:59:29;;;;;;;3.75;1.80;;;8.20;99.90;;;;;;7263202;32;20139;-84
2022/01/03 18:03:31;;;;;;;4.03;1.48;;;8.20;99.90;;;;;;7259874;32;20192;-83
2022/01/03 18:07:34;;;;;;;6.45;1.48;;;8.20;99.90;;;;;;7261085;32;20721;-83
2022/01/03 18:11:35;;;;;;;4.57;1.25;;;8.20;99.90;;;;;;7254714;32;20535;-85
2022/01/03 18:15:38;;;;;;;3.67;1.27;;;8.40;99.90;;;;;;7245533;32;20319;-84
2022/01/03 18:19:40;;;;;;;3.60;1.45;;;8.40;99.90;;;;;;7257740;32;20105;-83
2022/01/03 18:23:42;;;;;;;7.32;1.48;;;8.40;99.90;;;;;;7257370;32;20532;-83
2022/01/03 18:27:43;;;;;;;4.97;1.30;;;8.40;99.90;;;;;;7250871;32;20199;-83
2022/01/03 18:31:46;;;;;;;7.00;1.73;;;8.40;99.90;;;;;;7250520;32;20184;-83
2022/01/03 18:35:48;;;;;;;5.35;1.45;;;8.40;99.90;;;;;;7256877;32;20486;-84
2022/01/03 18:39:49;;;;;;;5.32;1.90;;;8.40;99.90;;;;;;7252839;32;20108;-83
2022/01/03 18:43:51;;;;;;;4.53;1.58;;;8.50;99.90;;;;;;7257420;32;20105;-82
2022/01/03 18:47:53;;;;;;;4.93;1.70;;;8.50;99.90;;;;;;7249095;32;20747;-83
2022/01/03 18:51:55;;;;;;;6.12;1.58;;;8.50;99.90;;;;;;7249544;32;20109;-84
2022/01/03 18:55:59;;;;;;;4.07;1.80;;;8.50;99.90;;;;;;7251564;32;20125;-83
2022/01/03 19:00:05;;;;;;;3.85;1.80;;;8.40;99.90;;;;;;7250733;32;20084;-82
2022/01/03 19:04:07;;;;;;;3.28;1.83;;;8.50;99.90;;;;;;7261698;32;20477;-83
2022/01/03 19:08:09;;;;;;;3.72;1.90;;;8.60;99.90;;;;;;7258234;32;20132;-84
2022/01/03 19:12:14;;;;;;;3.72;2.17;;;8.50;99.90;;;;;;7244123;32;20164;-83
2022/01/03 19:16:18;;;;;;;6.80;1.70;;;8.50;99.90;;;;;;7257663;32;20112;-84
2022/01/03 19:20:20;;;;;;;6.25;2.10;;;8.60;99.90;;;;;;7252515;32;20176;-83
2022/01/03 19:24:22;;;;;;;5.93;2.12;;;8.50;99.90;;;;;;7247663;32;20121;-83
2022/01/03 19:28:24;;;;;;;4.40;1.80;;;8.50;99.90;;;;;;7260013;32;20208;-83
2022/01/03 19:32:35;;;;;;;5.10;2.40;;;8.50;99.90;;;;;;7253463;32;20509;-83
2022/01/03 19:40:58;;;;;;;8.50;2.17;;;8.50;99.90;;;;;;7275889;32;20590;-83
2022/01/03 19:45:01;;;;;;;9.45;2.22;;;8.60;99.90;;;;;;7261821;32;20100;-83
2022/01/03 19:49:08;;;;;;;5.05;2.15;;;8.60;99.90;;;;;;7241500;32;20164;-83
2022/01/03 19:53:10;;;;;;;6.80;2.12;;;8.50;99.90;;;;;;7250542;32;20159;-84
2022/01/03 19:57:26;;;;;;;6.80;3.35;;;8.40;99.90;;;;;;7259050;32;20120;-83
2022/01/03 20:01:30;;;;;;;5.85;3.33;;;8.40;99.90;;;;;;7255737;32;20116;-84
2022/01/03 20:05:33;;;;;;;4.32;2.30;;;8.50;99.90;;;;;;7248325;32;20147;-84
2022/01/03 20:09:39;;;;;;;5.25;2.05;;;8.50;99.90;;;;;;7250511;32;20128;-84
2022/01/03 20:13:46;;;;;;;5.40;2.20;;;8.50;99.90;;;;;;7263410;32;20104;-84
2022/01/03 20:17:49;;;;;;;7.65;1.80;;;8.50;99.90;;;;;;7262397;32;20414;-83
2022/01/03 20:21:51;;;;;;;8.98;2.42;;;8.40;99.90;;;;;;7271801;32;20134;-83
2022/01/03 20:25:53;;;;;;;5.62;3.50;;;8.40;99.90;;;;;;7249323;32;20502;-84
2022/01/03 20:29:55;;;;;;;5.32;2.12;;;8.30;99.90;;;;;;7252659;32;20143;-83
2022/01/03 20:33:57;;;;;;;6.45;1.98;;;8.40;99.90;;;;;;7269508;32;20116;-84
2022/01/03 20:37:58;;;;;;;3.92;1.90;;;8.50;99.90;;;;;;7251331;32;20139;-83
2022/01/03 20:42:01;;;;;;;3.53;1.90;;;8.50;99.90;;;;;;7251682;32;20159;-84
2022/01/03 20:46:03;;;;;;;7.60;2.28;;;8.60;99.90;;;;;;7251976;32;20158;-84
2022/01/03 20:50:07;;;;;;;5.22;1.90;;;8.50;99.90;;;;;;7254024;32;20235;-84
2022/01/03 20:54:09;;;;;;;5.28;1.60;;;8.60;99.90;;;;;;7260249;32;20128;-84
2022/01/03 20:58:11;;;;;;;6.70;1.85;;;8.60;99.90;;;;;;7252269;32;20522;-84
2022/01/03 21:02:15;;;;;;;8.13;2.50;;;8.60;99.90;;;;;;7251686;32;20758;-84
2022/01/03 21:06:17;;;;;;;4.50;2.37;;;8.60;99.90;;;;;;7254113;32;20124;-83
2022/01/03 21:10:39;;;;;;;7.55;3.20;;;8.70;99.90;;;;;;7257875;32;20203;-83
2022/01/03 21:14:41;;;;;;;8.18;3.60;;;8.80;99.90;;;;;;7239097;32;20219;-82
2022/01/03 21:18:45;;;;;;;5.62;3.20;;;8.80;99.90;;;;;;7238217;32;20147;-84
2022/01/03 21:22:47;;;;;;;7.25;3.53;;;8.80;99.90;;;;;;7254227;32;20147;-83
2022/01/03 21:26:49;;;;;;;7.05;3.78;;;8.80;99.90;;;;;;7262209;32;20322;-84
2022/01/03 21:30:52;;;;;;;6.65;4.05;;;8.80;99.90;;;;;;7256875;32;20583;-83
2022/01/03 21:34:54;;;;;;;7.57;4.07;;;8.80;99.90;;;;;;7253662;32;20204;-83
2022/01/03 21:38:56;;;;;;;9.13;3.45;;;8.80;99.90;;;;;;7266064;32;20627;-83
2022/01/03 21:42:58;;;;;;;7.68;3.53;;;8.80;99.90;;;;;;7263946;32;20105;-83
2022/01/03 21:47:00;;;;;;;11.40;3.95;;;8.80;99.90;;;;;;7254553;32;20116;-83